sensor_id;sensor_type;location;lat;lon;timestamp;temperature;humidity
80279;DHT22;70683;52.492;13.416;2024-01-25T00:02:18;10.50;72.80
80279;DHT22;70683;52.492;13.416;2024-01-25T00:04:44;10.40;73.10
80279;DHT22;70683;52.492;13.416;2024-01-25T00:07:11;10.40;73.30
80279;DHT22;70683;52.492;13.416;2024-01-25T00:09:38;10.40;73.60
80279;DHT22;70683;52.492;13.416;2024-01-25T00:12:05;10.50;74.20
80279;DHT22;70683;52.492;13.416;2024-01-25T00:14:32;10.60;73.80
80279;DHT22;70683;52.492;13.416;2024-01-25T00:16:59;10.50;74.20
80279;DHT22;70683;52.492;13.416;2024-01-25T00:19:25;10.50;74.40
80279;DHT22;70683;52.492;13.416;2024-01-25T00:21:52;10.50;74.70
80279;DHT22;70683;52.492;13.416;2024-01-25T00:24:18;10.50;74.80
80279;DHT22;70683;52.492;13.416;2024-01-25T00:26:45;10.60;74.10
80279;DHT22;70683;52.492;13.416;2024-01-25T00:29:12;10.50;74.50
80279;DHT22;70683;52.492;13.416;2024-01-25T00:31:38;10.50;75.00
80279;DHT22;70683;52.492;13.416;2024-01-25T00:34:05;10.50;75.00
80279;DHT22;70683;52.492;13.416;2024-01-25T00:36:32;10.50;74.40
80279;DHT22;70683;52.492;13.416;2024-01-25T00:38:59;10.60;74.30
80279;DHT22;70683;52.492;13.416;2024-01-25T00:41:25;10.60;74.60
80279;DHT22;70683;52.492;13.416;2024-01-25T00:43:53;10.60;74.10
80279;DHT22;70683;52.492;13.416;2024-01-25T00:46:20;10.70;73.90
80279;DHT22;70683;52.492;13.416;2024-01-25T00:48:47;10.60;74.20
80279;DHT22;70683;52.492;13.416;2024-01-25T00:51:15;10.40;74.60
80279;DHT22;70683;52.492;13.416;2024-01-25T00:53:44;10.40;75.10
80279;DHT22;70683;52.492;13.416;2024-01-25T00:56:12;10.50;74.60
80279;DHT22;70683;52.492;13.416;2024-01-25T00:58:39;10.60;74.20
80279;DHT22;70683;52.492;13.416;2024-01-25T01:01:06;10.40;74.20
80279;DHT22;70683;52.492;13.416;2024-01-25T01:03:33;10.40;74.70
80279;DHT22;70683;52.492;13.416;2024-01-25T01:05:59;10.50;74.80
80279;DHT22;70683;52.492;13.416;2024-01-25T01:08:27;10.50;74.60
80279;DHT22;70683;52.492;13.416;2024-01-25T01:10:54;10.40;74.70
80279;DHT22;70683;52.492;13.416;2024-01-25T01:13:20;10.40;74.80
80279;DHT22;70683;52.492;13.416;2024-01-25T01:15:47;10.40;74.80
80279;DHT22;70683;52.492;13.416;2024-01-25T01:18:13;10.50;74.10
80279;DHT22;70683;52.492;13.416;2024-01-25T01:20:40;10.40;75.20
80279;DHT22;70683;52.492;13.416;2024-01-25T01:23:07;10.40;74.10
80279;DHT22;70683;52.492;13.416;2024-01-25T01:25:33;10.40;73.60
80279;DHT22;70683;52.492;13.416;2024-01-25T01:28:00;10.40;73.40
80279;DHT22;70683;52.492;13.416;2024-01-25T01:30:26;10.40;74.10
80279;DHT22;70683;52.492;13.416;2024-01-25T01:32:53;10.30;74.10
80279;DHT22;70683;52.492;13.416;2024-01-25T01:35:20;10.30;74.90
80279;DHT22;70683;52.492;13.416;2024-01-25T01:37:46;10.30;74.60
80279;DHT22;70683;52.492;13.416;2024-01-25T01:40:13;10.30;74.50
80279;DHT22;70683;52.492;13.416;2024-01-25T01:42:39;10.30;74.60
80279;DHT22;70683;52.492;13.416;2024-01-25T01:45:06;10.30;74.60
80279;DHT22;70683;52.492;13.416;2024-01-25T01:47:33;10.50;73.90
80279;DHT22;70683;52.492;13.416;2024-01-25T01:50:01;10.40;74.10
80279;DHT22;70683;52.492;13.416;2024-01-25T01:52:28;10.40;74.10
80279;DHT22;70683;52.492;13.416;2024-01-25T01:54:55;10.40;74.00
80279;DHT22;70683;52.492;13.416;2024-01-25T01:57:22;10.50;73.30
80279;DHT22;70683;52.492;13.416;2024-01-25T01:59:50;10.50;73.20
80279;DHT22;70683;52.492;13.416;2024-01-25T02:02:17;10.40;73.20
80279;DHT22;70683;52.492;13.416;2024-01-25T02:04:44;10.40;73.60
80279;DHT22;70683;52.492;13.416;2024-01-25T02:07:11;10.40;73.60
80279;DHT22;70683;52.492;13.416;2024-01-25T02:09:40;10.40;73.90
80279;DHT22;70683;52.492;13.416;2024-01-25T02:12:07;10.40;74.00
80279;DHT22;70683;52.492;13.416;2024-01-25T02:14:34;10.40;73.60
80279;DHT22;70683;52.492;13.416;2024-01-25T02:17:00;10.40;73.80
80279;DHT22;70683;52.492;13.416;2024-01-25T02:19:27;10.40;73.40
80279;DHT22;70683;52.492;13.416;2024-01-25T02:21:54;10.30;74.20
80279;DHT22;70683;52.492;13.416;2024-01-25T02:24:22;10.20;74.10
80279;DHT22;70683;52.492;13.416;2024-01-25T02:26:48;10.20;74.60
80279;DHT22;70683;52.492;13.416;2024-01-25T02:29:15;10.20;74.90
80279;DHT22;70683;52.492;13.416;2024-01-25T02:31:41;10.10;74.60
80279;DHT22;70683;52.492;13.416;2024-01-25T02:34:08;10.10;75.00
80279;DHT22;70683;52.492;13.416;2024-01-25T02:36:34;10.10;74.30
80279;DHT22;70683;52.492;13.416;2024-01-25T02:39:01;10.10;75.00
80279;DHT22;70683;52.492;13.416;2024-01-25T02:41:29;10.10;75.10
80279;DHT22;70683;52.492;13.416;2024-01-25T02:43:56;10.00;74.80
80279;DHT22;70683;52.492;13.416;2024-01-25T02:46:23;10.00;75.50
80279;DHT22;70683;52.492;13.416;2024-01-25T02:48:50;10.00;75.50
80279;DHT22;70683;52.492;13.416;2024-01-25T02:51:16;10.00;75.70
80279;DHT22;70683;52.492;13.416;2024-01-25T02:53:43;10.00;75.40
80279;DHT22;70683;52.492;13.416;2024-01-25T02:56:10;10.00;76.30
80279;DHT22;70683;52.492;13.416;2024-01-25T02:58:36;10.00;76.30
80279;DHT22;70683;52.492;13.416;2024-01-25T03:01:03;10.10;75.50
80279;DHT22;70683;52.492;13.416;2024-01-25T03:03:29;10.10;75.70
80279;DHT22;70683;52.492;13.416;2024-01-25T03:05:56;10.10;75.80
80279;DHT22;70683;52.492;13.416;2024-01-25T03:08:23;10.10;75.50
80279;DHT22;70683;52.492;13.416;2024-01-25T03:10:49;10.20;74.80
80279;DHT22;70683;52.492;13.416;2024-01-25T03:13:16;10.10;74.90
80279;DHT22;70683;52.492;13.416;2024-01-25T03:15:43;10.10;75.20
80279;DHT22;70683;52.492;13.416;2024-01-25T03:18:10;10.20;74.30
80279;DHT22;70683;52.492;13.416;2024-01-25T03:20:37;10.20;74.10
80279;DHT22;70683;52.492;13.416;2024-01-25T03:23:03;10.30;74.10
80279;DHT22;70683;52.492;13.416;2024-01-25T03:25:30;10.30;73.60
80279;DHT22;70683;52.492;13.416;2024-01-25T03:27:57;10.20;73.80
80279;DHT22;70683;52.492;13.416;2024-01-25T03:30:24;10.20;74.00
80279;DHT22;70683;52.492;13.416;2024-01-25T03:32:51;10.20;73.90
80279;DHT22;70683;52.492;13.416;2024-01-25T03:35:17;10.20;73.60
80279;DHT22;70683;52.492;13.416;2024-01-25T03:37:44;10.20;73.20
80279;DHT22;70683;52.492;13.416;2024-01-25T03:40:10;10.10;73.10
80279;DHT22;70683;52.492;13.416;2024-01-25T03:42:37;10.10;73.50
80279;DHT22;70683;52.492;13.416;2024-01-25T03:45:04;10.10;73.50
80279;DHT22;70683;52.492;13.416;2024-01-25T03:47:31;10.10;73.40
80279;DHT22;70683;52.492;13.416;2024-01-25T03:49:57;10.10;73.10
80279;DHT22;70683;52.492;13.416;2024-01-25T03:52:26;10.10;73.10
80279;DHT22;70683;52.492;13.416;2024-01-25T03:54:54;10.00;73.90
80279;DHT22;70683;52.492;13.416;2024-01-25T03:57:21;10.00;73.50
80279;DHT22;70683;52.492;13.416;2024-01-25T03:59:48;9.90;73.60
80279;DHT22;70683;52.492;13.416;2024-01-25T04:02:14;9.90;74.50
80279;DHT22;70683;52.492;13.416;2024-01-25T04:04:41;9.80;74.40
80279;DHT22;70683;52.492;13.416;2024-01-25T04:07:08;9.80;73.90
80279;DHT22;70683;52.492;13.416;2024-01-25T04:09:34;9.80;74.80
80279;DHT22;70683;52.492;13.416;2024-01-25T04:12:01;9.80;74.40
80279;DHT22;70683;52.492;13.416;2024-01-25T04:14:27;9.90;73.90
80279;DHT22;70683;52.492;13.416;2024-01-25T04:16:54;9.90;73.90
80279;DHT22;70683;52.492;13.416;2024-01-25T04:19:20;9.90;73.80
80279;DHT22;70683;52.492;13.416;2024-01-25T04:21:47;10.00;73.20
80279;DHT22;70683;52.492;13.416;2024-01-25T04:24:14;10.00;74.00
80279;DHT22;70683;52.492;13.416;2024-01-25T04:26:40;9.90;73.70
80279;DHT22;70683;52.492;13.416;2024-01-25T04:29:07;9.90;73.70
80279;DHT22;70683;52.492;13.416;2024-01-25T04:31:33;9.80;74.80
80279;DHT22;70683;52.492;13.416;2024-01-25T04:34:00;9.80;75.00
80279;DHT22;70683;52.492;13.416;2024-01-25T04:36:26;9.80;74.60
80279;DHT22;70683;52.492;13.416;2024-01-25T04:38:53;9.70;75.30
80279;DHT22;70683;52.492;13.416;2024-01-25T04:41:20;9.70;75.40
80279;DHT22;70683;52.492;13.416;2024-01-25T04:43:46;9.80;75.30
80279;DHT22;70683;52.492;13.416;2024-01-25T04:46:13;9.70;75.20
80279;DHT22;70683;52.492;13.416;2024-01-25T04:48:40;9.70;75.40
80279;DHT22;70683;52.492;13.416;2024-01-25T04:51:06;9.70;75.10
80279;DHT22;70683;52.492;13.416;2024-01-25T04:53:33;9.80;75.00
80279;DHT22;70683;52.492;13.416;2024-01-25T04:55:59;9.80;74.90
80279;DHT22;70683;52.492;13.416;2024-01-25T04:58:26;9.90;75.00
80279;DHT22;70683;52.492;13.416;2024-01-25T05:00:53;10.00;74.30
80279;DHT22;70683;52.492;13.416;2024-01-25T05:03:21;9.90;74.20
80279;DHT22;70683;52.492;13.416;2024-01-25T05:05:47;9.80;75.00
80279;DHT22;70683;52.492;13.416;2024-01-25T05:08:14;9.70;75.40
80279;DHT22;70683;52.492;13.416;2024-01-25T05:10:41;9.80;75.50
80279;DHT22;70683;52.492;13.416;2024-01-25T05:13:08;9.80;75.00
80279;DHT22;70683;52.492;13.416;2024-01-25T05:15:35;9.90;74.30
80279;DHT22;70683;52.492;13.416;2024-01-25T05:18:02;9.70;75.20
80279;DHT22;70683;52.492;13.416;2024-01-25T05:20:29;9.70;75.40
80279;DHT22;70683;52.492;13.416;2024-01-25T05:22:59;9.70;76.00
80279;DHT22;70683;52.492;13.416;2024-01-25T05:25:25;9.70;76.00
80279;DHT22;70683;52.492;13.416;2024-01-25T05:27:54;9.80;75.50
80279;DHT22;70683;52.492;13.416;2024-01-25T05:30:22;9.70;75.50
80279;DHT22;70683;52.492;13.416;2024-01-25T05:32:48;9.80;75.40
80279;DHT22;70683;52.492;13.416;2024-01-25T05:35:16;9.80;75.40
80279;DHT22;70683;52.492;13.416;2024-01-25T05:37:43;9.80;75.30
80279;DHT22;70683;52.492;13.416;2024-01-25T05:40:10;9.70;75.80
80279;DHT22;70683;52.492;13.416;2024-01-25T05:42:37;9.70;75.50
80279;DHT22;70683;52.492;13.416;2024-01-25T05:45:04;9.70;75.10
80279;DHT22;70683;52.492;13.416;2024-01-25T05:47:31;9.70;74.60
80279;DHT22;70683;52.492;13.416;2024-01-25T05:49:58;9.70;74.30
80279;DHT22;70683;52.492;13.416;2024-01-25T05:52:24;9.60;74.50
80279;DHT22;70683;52.492;13.416;2024-01-25T05:54:51;9.70;74.30
80279;DHT22;70683;52.492;13.416;2024-01-25T05:57:18;9.70;74.30
80279;DHT22;70683;52.492;13.416;2024-01-25T05:59:45;9.70;74.00
80279;DHT22;70683;52.492;13.416;2024-01-25T06:02:12;9.70;74.90
80279;DHT22;70683;52.492;13.416;2024-01-25T06:04:39;9.70;74.60
80279;DHT22;70683;52.492;13.416;2024-01-25T06:07:06;9.70;74.60
80279;DHT22;70683;52.492;13.416;2024-01-25T06:09:32;9.70;74.00
80279;DHT22;70683;52.492;13.416;2024-01-25T06:11:59;9.70;74.90
80279;DHT22;70683;52.492;13.416;2024-01-25T06:14:25;9.70;74.90
80279;DHT22;70683;52.492;13.416;2024-01-25T06:16:52;9.80;74.10
80279;DHT22;70683;52.492;13.416;2024-01-25T06:19:19;9.80;74.00
80279;DHT22;70683;52.492;13.416;2024-01-25T06:21:45;9.70;74.00
80279;DHT22;70683;52.492;13.416;2024-01-25T06:24:12;9.70;74.50
80279;DHT22;70683;52.492;13.416;2024-01-25T06:26:39;9.70;74.30
80279;DHT22;70683;52.492;13.416;2024-01-25T06:29:05;9.60;74.60
80279;DHT22;70683;52.492;13.416;2024-01-25T06:31:32;9.60;74.90
80279;DHT22;70683;52.492;13.416;2024-01-25T06:33:58;9.60;75.00
80279;DHT22;70683;52.492;13.416;2024-01-25T06:36:25;9.70;74.20
80279;DHT22;70683;52.492;13.416;2024-01-25T06:38:52;9.70;74.30
80279;DHT22;70683;52.492;13.416;2024-01-25T06:41:19;9.70;74.40
80279;DHT22;70683;52.492;13.416;2024-01-25T06:43:45;9.60;74.00
80279;DHT22;70683;52.492;13.416;2024-01-25T06:46:12;9.60;75.00
80279;DHT22;70683;52.492;13.416;2024-01-25T06:48:39;9.60;74.80
80279;DHT22;70683;52.492;13.416;2024-01-25T06:51:05;9.60;74.60
80279;DHT22;70683;52.492;13.416;2024-01-25T06:53:32;9.60;74.60
80279;DHT22;70683;52.492;13.416;2024-01-25T06:55:58;9.70;74.40
80279;DHT22;70683;52.492;13.416;2024-01-25T06:58:25;9.70;74.10
80279;DHT22;70683;52.492;13.416;2024-01-25T07:00:52;9.60;74.40
80279;DHT22;70683;52.492;13.416;2024-01-25T07:03:19;9.60;75.00
80279;DHT22;70683;52.492;13.416;2024-01-25T07:05:45;9.60;75.00
80279;DHT22;70683;52.492;13.416;2024-01-25T07:08:12;9.60;74.10
80279;DHT22;70683;52.492;13.416;2024-01-25T07:10:40;9.70;73.50
80279;DHT22;70683;52.492;13.416;2024-01-25T07:13:07;9.60;72.90
80279;DHT22;70683;52.492;13.416;2024-01-25T07:15:34;9.70;73.10
80279;DHT22;70683;52.492;13.416;2024-01-25T07:18:01;9.70;73.00
80279;DHT22;70683;52.492;13.416;2024-01-25T07:20:27;9.60;74.00
80279;DHT22;70683;52.492;13.416;2024-01-25T07:22:54;9.60;73.70
80279;DHT22;70683;52.492;13.416;2024-01-25T07:25:21;9.70;73.40
80279;DHT22;70683;52.492;13.416;2024-01-25T07:27:48;9.80;73.20
80279;DHT22;70683;52.492;13.416;2024-01-25T07:30:15;9.80;73.90
80279;DHT22;70683;52.492;13.416;2024-01-25T07:32:42;9.70;74.30
80279;DHT22;70683;52.492;13.416;2024-01-25T07:35:08;9.80;73.90
80279;DHT22;70683;52.492;13.416;2024-01-25T07:37:36;9.80;73.90
80279;DHT22;70683;52.492;13.416;2024-01-25T07:40:03;9.80;73.50
80279;DHT22;70683;52.492;13.416;2024-01-25T07:42:30;9.80;73.80
80279;DHT22;70683;52.492;13.416;2024-01-25T07:44:57;9.90;73.70
80279;DHT22;70683;52.492;13.416;2024-01-25T07:47:24;9.80;73.90
80279;DHT22;70683;52.492;13.416;2024-01-25T07:49:51;9.90;73.90
80279;DHT22;70683;52.492;13.416;2024-01-25T07:52:18;9.90;73.30
80279;DHT22;70683;52.492;13.416;2024-01-25T07:54:44;9.90;73.20
80279;DHT22;70683;52.492;13.416;2024-01-25T07:57:11;9.90;74.20
80279;DHT22;70683;52.492;13.416;2024-01-25T07:59:38;9.80;73.50
80279;DHT22;70683;52.492;13.416;2024-01-25T08:02:04;9.80;74.30
80279;DHT22;70683;52.492;13.416;2024-01-25T08:04:31;9.80;74.40
80279;DHT22;70683;52.492;13.416;2024-01-25T08:06:58;9.90;73.20
80279;DHT22;70683;52.492;13.416;2024-01-25T08:09:24;9.90;73.10
80279;DHT22;70683;52.492;13.416;2024-01-25T08:11:51;9.90;73.30
80279;DHT22;70683;52.492;13.416;2024-01-25T08:14:18;9.90;73.70
80279;DHT22;70683;52.492;13.416;2024-01-25T08:16:45;10.00;73.40
80279;DHT22;70683;52.492;13.416;2024-01-25T08:19:11;9.90;73.00
80279;DHT22;70683;52.492;13.416;2024-01-25T08:21:38;9.90;73.00
80279;DHT22;70683;52.492;13.416;2024-01-25T08:24:05;9.80;73.30
80279;DHT22;70683;52.492;13.416;2024-01-25T08:26:32;9.70;74.00
80279;DHT22;70683;52.492;13.416;2024-01-25T08:28:59;9.90;73.30
80279;DHT22;70683;52.492;13.416;2024-01-25T08:31:25;10.00;73.10
80279;DHT22;70683;52.492;13.416;2024-01-25T08:33:52;10.00;72.60
80279;DHT22;70683;52.492;13.416;2024-01-25T08:36:19;9.90;73.50
80279;DHT22;70683;52.492;13.416;2024-01-25T08:38:46;9.90;72.80
80279;DHT22;70683;52.492;13.416;2024-01-25T08:41:13;9.90;72.50
80279;DHT22;70683;52.492;13.416;2024-01-25T08:43:41;10.00;72.90
80279;DHT22;70683;52.492;13.416;2024-01-25T08:46:08;9.80;73.10
80279;DHT22;70683;52.492;13.416;2024-01-25T08:48:35;9.70;73.20
80279;DHT22;70683;52.492;13.416;2024-01-25T08:51:02;9.80;73.80
80279;DHT22;70683;52.492;13.416;2024-01-25T08:53:29;9.90;73.30
80279;DHT22;70683;52.492;13.416;2024-01-25T08:55:56;10.00;73.00
80279;DHT22;70683;52.492;13.416;2024-01-25T08:58:25;10.00;73.40
80279;DHT22;70683;52.492;13.416;2024-01-25T09:00:51;10.00;72.40
80279;DHT22;70683;52.492;13.416;2024-01-25T09:03:18;10.10;72.50
80279;DHT22;70683;52.492;13.416;2024-01-25T09:05:45;10.10;73.00
80279;DHT22;70683;52.492;13.416;2024-01-25T09:08:13;10.10;72.10
80279;DHT22;70683;52.492;13.416;2024-01-25T09:10:41;10.10;72.20
80279;DHT22;70683;52.492;13.416;2024-01-25T09:13:08;10.10;72.70
80279;DHT22;70683;52.492;13.416;2024-01-25T09:15:35;10.10;72.20
80279;DHT22;70683;52.492;13.416;2024-01-25T09:18:02;10.00;72.90
80279;DHT22;70683;52.492;13.416;2024-01-25T09:20:29;10.00;72.70
80279;DHT22;70683;52.492;13.416;2024-01-25T09:22:55;10.10;72.30
80279;DHT22;70683;52.492;13.416;2024-01-25T09:25:22;10.20;71.70
80279;DHT22;70683;52.492;13.416;2024-01-25T09:27:49;10.10;72.20
80279;DHT22;70683;52.492;13.416;2024-01-25T09:30:16;10.20;72.60
80279;DHT22;70683;52.492;13.416;2024-01-25T09:32:43;10.10;72.20
80279;DHT22;70683;52.492;13.416;2024-01-25T09:35:09;10.10;73.10
80279;DHT22;70683;52.492;13.416;2024-01-25T09:37:36;10.10;72.30
80279;DHT22;70683;52.492;13.416;2024-01-25T09:40:03;10.10;73.30
80279;DHT22;70683;52.492;13.416;2024-01-25T09:42:31;10.20;71.80
80279;DHT22;70683;52.492;13.416;2024-01-25T09:44:58;10.10;72.40
80279;DHT22;70683;52.492;13.416;2024-01-25T09:47:24;10.10;72.60
80279;DHT22;70683;52.492;13.416;2024-01-25T09:49:51;10.00;72.80
80279;DHT22;70683;52.492;13.416;2024-01-25T09:52:19;10.10;73.10
80279;DHT22;70683;52.492;13.416;2024-01-25T09:54:50;10.10;72.60
80279;DHT22;70683;52.492;13.416;2024-01-25T09:57:22;10.00;72.80
80279;DHT22;70683;52.492;13.416;2024-01-25T09:59:50;10.00;73.20
80279;DHT22;70683;52.492;13.416;2024-01-25T10:02:19;10.00;73.00
80279;DHT22;70683;52.492;13.416;2024-01-25T10:04:49;10.00;73.30
80279;DHT22;70683;52.492;13.416;2024-01-25T10:09:56;9.90;73.20
80279;DHT22;70683;52.492;13.416;2024-01-25T10:12:23;9.90;72.50
80279;DHT22;70683;52.492;13.416;2024-01-25T10:14:51;9.80;74.60
80279;DHT22;70683;52.492;13.416;2024-01-25T10:17:18;9.80;74.50
80279;DHT22;70683;52.492;13.416;2024-01-25T10:19:45;9.80;73.80
80279;DHT22;70683;52.492;13.416;2024-01-25T10:22:13;9.80;73.90
80279;DHT22;70683;52.492;13.416;2024-01-25T10:24:40;9.70;74.00
80279;DHT22;70683;52.492;13.416;2024-01-25T10:27:08;9.80;74.40
80279;DHT22;70683;52.492;13.416;2024-01-25T10:29:35;9.80;74.10
80279;DHT22;70683;52.492;13.416;2024-01-25T10:32:02;9.80;74.00
80279;DHT22;70683;52.492;13.416;2024-01-25T10:34:30;9.80;74.50
80279;DHT22;70683;52.492;13.416;2024-01-25T10:36:57;9.90;73.90
80279;DHT22;70683;52.492;13.416;2024-01-25T10:39:24;9.80;74.10
80279;DHT22;70683;52.492;13.416;2024-01-25T10:41:51;9.90;74.00
80279;DHT22;70683;52.492;13.416;2024-01-25T10:44:18;9.90;73.20
80279;DHT22;70683;52.492;13.416;2024-01-25T10:46:47;10.00;73.50
80279;DHT22;70683;52.492;13.416;2024-01-25T10:49:16;10.10;73.30
80279;DHT22;70683;52.492;13.416;2024-01-25T10:51:44;10.20;72.80
80279;DHT22;70683;52.492;13.416;2024-01-25T10:54:12;10.20;72.30
80279;DHT22;70683;52.492;13.416;2024-01-25T10:56:42;10.20;73.20
80279;DHT22;70683;52.492;13.416;2024-01-25T10:59:10;10.20;72.90
80279;DHT22;70683;52.492;13.416;2024-01-25T11:01:37;10.30;72.00
80279;DHT22;70683;52.492;13.416;2024-01-25T11:04:19;10.40;72.00
80279;DHT22;70683;52.492;13.416;2024-01-25T11:06:46;10.40;72.10
80279;DHT22;70683;52.492;13.416;2024-01-25T11:09:18;10.40;72.00
80279;DHT22;70683;52.492;13.416;2024-01-25T11:11:47;10.20;72.80
80279;DHT22;70683;52.492;13.416;2024-01-25T11:14:15;10.20;72.80
80279;DHT22;70683;52.492;13.416;2024-01-25T11:16:44;10.20;72.90
80279;DHT22;70683;52.492;13.416;2024-01-25T11:19:18;10.20;73.50
80279;DHT22;70683;52.492;13.416;2024-01-25T11:21:47;10.30;72.40
80279;DHT22;70683;52.492;13.416;2024-01-25T11:24:15;10.30;72.30
80279;DHT22;70683;52.492;13.416;2024-01-25T11:26:43;10.20;72.20
80279;DHT22;70683;52.492;13.416;2024-01-25T11:29:15;10.20;72.30
80279;DHT22;70683;52.492;13.416;2024-01-25T11:31:46;10.20;72.20
80279;DHT22;70683;52.492;13.416;2024-01-25T11:34:14;10.10;72.50
80279;DHT22;70683;52.492;13.416;2024-01-25T11:36:42;10.20;72.20
80279;DHT22;70683;52.492;13.416;2024-01-25T11:39:11;10.10;72.70
80279;DHT22;70683;52.492;13.416;2024-01-25T11:41:38;10.10;72.90
80279;DHT22;70683;52.492;13.416;2024-01-25T11:44:05;10.10;72.40
80279;DHT22;70683;52.492;13.416;2024-01-25T11:46:32;10.20;73.20
80279;DHT22;70683;52.492;13.416;2024-01-25T11:48:59;10.30;72.40
80279;DHT22;70683;52.492;13.416;2024-01-25T11:51:25;10.50;71.50
80279;DHT22;70683;52.492;13.416;2024-01-25T11:53:52;10.50;70.50
80279;DHT22;70683;52.492;13.416;2024-01-25T11:56:23;10.50;70.60
80279;DHT22;70683;52.492;13.416;2024-01-25T11:58:50;10.60;70.60
80279;DHT22;70683;52.492;13.416;2024-01-25T12:01:18;10.70;70.00
80279;DHT22;70683;52.492;13.416;2024-01-25T12:03:45;10.70;69.40
80279;DHT22;70683;52.492;13.416;2024-01-25T12:06:12;10.70;69.10
80279;DHT22;70683;52.492;13.416;2024-01-25T12:08:39;10.80;69.20
80279;DHT22;70683;52.492;13.416;2024-01-25T12:11:08;10.90;69.40
80279;DHT22;70683;52.492;13.416;2024-01-25T12:13:35;10.80;69.50
80279;DHT22;70683;52.492;13.416;2024-01-25T12:16:03;10.70;69.50
80279;DHT22;70683;52.492;13.416;2024-01-25T12:18:30;10.70;69.20
80279;DHT22;70683;52.492;13.416;2024-01-25T12:20:59;10.90;69.50
80279;DHT22;70683;52.492;13.416;2024-01-25T12:23:32;10.70;69.10
80279;DHT22;70683;52.492;13.416;2024-01-25T12:26:01;10.80;70.00
80279;DHT22;70683;52.492;13.416;2024-01-25T12:28:29;10.80;69.90
80279;DHT22;70683;52.492;13.416;2024-01-25T12:30:56;10.90;68.90
80279;DHT22;70683;52.492;13.416;2024-01-25T12:33:23;10.90;68.70
80279;DHT22;70683;52.492;13.416;2024-01-25T12:35:50;10.90;68.30
80279;DHT22;70683;52.492;13.416;2024-01-25T12:38:16;10.90;68.30
80279;DHT22;70683;52.492;13.416;2024-01-25T12:40:45;10.90;67.70
80279;DHT22;70683;52.492;13.416;2024-01-25T12:43:12;10.90;67.70
80279;DHT22;70683;52.492;13.416;2024-01-25T12:45:39;10.80;67.70
80279;DHT22;70683;52.492;13.416;2024-01-25T12:48:06;10.60;69.00
80279;DHT22;70683;52.492;13.416;2024-01-25T12:50:35;10.50;69.20
80279;DHT22;70683;52.492;13.416;2024-01-25T12:53:03;10.50;69.80
80279;DHT22;70683;52.492;13.416;2024-01-25T12:55:30;10.50;70.40
80279;DHT22;70683;52.492;13.416;2024-01-25T12:57:58;10.60;71.50
80279;DHT22;70683;52.492;13.416;2024-01-25T13:00:26;10.60;70.70
80279;DHT22;70683;52.492;13.416;2024-01-25T13:02:52;10.60;70.90
80279;DHT22;70683;52.492;13.416;2024-01-25T13:05:20;10.60;71.20
80279;DHT22;70683;52.492;13.416;2024-01-25T13:07:47;10.60;71.10
80279;DHT22;70683;52.492;13.416;2024-01-25T13:10:14;10.60;71.20
80279;DHT22;70683;52.492;13.416;2024-01-25T13:12:41;10.60;72.10
80279;DHT22;70683;52.492;13.416;2024-01-25T13:15:08;10.70;71.50
80279;DHT22;70683;52.492;13.416;2024-01-25T13:17:35;10.60;71.40
80279;DHT22;70683;52.492;13.416;2024-01-25T13:20:03;10.40;72.10
80279;DHT22;70683;52.492;13.416;2024-01-25T13:22:32;10.30;72.70
80279;DHT22;70683;52.492;13.416;2024-01-25T13:25:00;10.50;72.60
80279;DHT22;70683;52.492;13.416;2024-01-25T13:27:28;10.40;72.90
80279;DHT22;70683;52.492;13.416;2024-01-25T13:29:55;10.50;72.10
80279;DHT22;70683;52.492;13.416;2024-01-25T13:32:23;10.50;71.70
80279;DHT22;70683;52.492;13.416;2024-01-25T13:34:50;10.50;71.60
80279;DHT22;70683;52.492;13.416;2024-01-25T13:37:17;10.50;71.80
80279;DHT22;70683;52.492;13.416;2024-01-25T13:39:43;10.60;71.50
80279;DHT22;70683;52.492;13.416;2024-01-25T13:42:10;10.60;71.60
80279;DHT22;70683;52.492;13.416;2024-01-25T13:44:40;10.70;71.40
80279;DHT22;70683;52.492;13.416;2024-01-25T13:47:07;10.60;71.20
80279;DHT22;70683;52.492;13.416;2024-01-25T13:49:34;10.70;71.20
80279;DHT22;70683;52.492;13.416;2024-01-25T13:52:02;10.60;71.50
80279;DHT22;70683;52.492;13.416;2024-01-25T13:54:29;10.50;70.90
80279;DHT22;70683;52.492;13.416;2024-01-25T13:56:56;10.40;71.40
80279;DHT22;70683;52.492;13.416;2024-01-25T13:59:23;10.50;71.40
80279;DHT22;70683;52.492;13.416;2024-01-25T14:01:51;10.50;71.10
80279;DHT22;70683;52.492;13.416;2024-01-25T14:04:18;10.50;71.00
80279;DHT22;70683;52.492;13.416;2024-01-25T14:06:45;10.50;70.80
80279;DHT22;70683;52.492;13.416;2024-01-25T14:09:11;10.50;70.40
80279;DHT22;70683;52.492;13.416;2024-01-25T14:11:38;10.60;69.90
80279;DHT22;70683;52.492;13.416;2024-01-25T14:14:05;10.50;70.00
80279;DHT22;70683;52.492;13.416;2024-01-25T14:16:31;10.60;69.20
80279;DHT22;70683;52.492;13.416;2024-01-25T14:18:59;10.40;69.40
80279;DHT22;70683;52.492;13.416;2024-01-25T14:21:26;10.40;69.70
80279;DHT22;70683;52.492;13.416;2024-01-25T14:23:52;10.40;70.40
80279;DHT22;70683;52.492;13.416;2024-01-25T14:26:19;10.30;70.20
80279;DHT22;70683;52.492;13.416;2024-01-25T14:28:45;10.40;70.00
80279;DHT22;70683;52.492;13.416;2024-01-25T14:31:12;10.40;69.70
80279;DHT22;70683;52.492;13.416;2024-01-25T14:33:38;10.30;69.60
80279;DHT22;70683;52.492;13.416;2024-01-25T14:36:06;10.30;70.10
80279;DHT22;70683;52.492;13.416;2024-01-25T14:38:32;10.30;70.00
80279;DHT22;70683;52.492;13.416;2024-01-25T14:41:00;10.40;69.50
80279;DHT22;70683;52.492;13.416;2024-01-25T14:43:26;10.30;69.50
80279;DHT22;70683;52.492;13.416;2024-01-25T14:45:53;10.40;70.20
80279;DHT22;70683;52.492;13.416;2024-01-25T14:48:20;10.30;69.80
80279;DHT22;70683;52.492;13.416;2024-01-25T14:50:46;10.20;70.40
80279;DHT22;70683;52.492;13.416;2024-01-25T14:53:13;10.20;70.50
80279;DHT22;70683;52.492;13.416;2024-01-25T14:55:39;10.20;70.20
80279;DHT22;70683;52.492;13.416;2024-01-25T14:58:06;10.20;70.10
80279;DHT22;70683;52.492;13.416;2024-01-25T15:00:34;10.30;69.80
80279;DHT22;70683;52.492;13.416;2024-01-25T15:03:01;10.20;70.00
80279;DHT22;70683;52.492;13.416;2024-01-25T15:05:27;10.20;70.30
80279;DHT22;70683;52.492;13.416;2024-01-25T15:07:54;10.20;70.00
80279;DHT22;70683;52.492;13.416;2024-01-25T15:10:21;10.20;70.00
80279;DHT22;70683;52.492;13.416;2024-01-25T15:12:47;10.20;70.10
80279;DHT22;70683;52.492;13.416;2024-01-25T15:15:15;10.10;70.90
80279;DHT22;70683;52.492;13.416;2024-01-25T15:17:42;10.00;70.90
80279;DHT22;70683;52.492;13.416;2024-01-25T15:20:10;9.90;71.50
80279;DHT22;70683;52.492;13.416;2024-01-25T15:22:36;9.90;71.70